Weather at Peplow Airstrip

Public forecast

Using degrees Celsius for public forecast. Weather courtesy of forecast.io.

Closest aviation weather report (METAR) to Peplow Airstrip

Closest report is RAF Shawbury, 6.0 nm (11.2 km) W. Retrieved 2020/11/28 15:50 UTC (14 minutes ago):

EGOS 281550Z AUTO 13002KT 1600 BR OVC002/// 08/08 Q1019

Closest aviation forecast (TAF) to Peplow Airstrip

Forecast is more than 12 hours old.

Closest forecast is RAF Shawbury, 6.0 nm (11.2 km) W. Retrieved 2010/10/20 21:33 UTC (10 years ago):

TAF TAF EGOS 201947Z 2021/2124 CNL